Time;durP1;ratioP1;P1;durP2;ratioP2;P2;SDS_P1;SDS_P2;PMS_P1;PMS_P2;Temp;Humidity;BMP_temperature;BMP_pressure;BME280_temperature;BME280_humidity;BME280_pressure;Samples;Min_cycle;Max_cycle;Signal;HPM_P1;HPM_P2
2021/01/07 00:01:53;;;;;;;28.83;24.23;;;1.60;99.90;;;;;;5093907;28;20462;-77
2021/01/07 00:04:20;;;;;;;30.13;24.90;;;1.60;99.90;;;;;;5097347;27;20461;-77
2021/01/07 00:06:47;;;;;;;34.07;24.43;;;1.60;99.90;;;;;;5092381;28;20966;-76
2021/01/07 00:09:13;;;;;;;35.00;25.60;;;1.60;99.90;;;;;;5109336;27;21000;-78
2021/01/07 00:11:42;;;;;;;34.13;25.80;;;1.60;99.90;;;;;;5100565;27;20608;-76
2021/01/07 00:14:09;;;;;;;34.90;25.83;;;1.60;99.90;;;;;;5098701;27;20486;-77
2021/01/07 00:16:36;;;;;;;32.73;24.87;;;1.60;99.90;;;;;;5099439;28;20600;-75
2021/01/07 00:19:04;;;;;;;31.77;23.50;;;1.70;99.90;;;;;;5100669;28;20474;-75
2021/01/07 00:21:31;;;;;;;39.33;25.27;;;1.70;99.90;;;;;;5097279;28;20462;-76
2021/01/07 00:23:58;;;;;;;30.57;23.93;;;1.70;99.90;;;;;;5103016;28;20465;-78
2021/01/07 00:26:24;;;;;;;31.50;24.73;;;1.70;99.90;;;;;;5098878;28;20478;-75
2021/01/07 00:28:51;;;;;;;33.67;26.23;;;1.70;99.90;;;;;;5103218;28;20486;-77
2021/01/07 00:31:17;;;;;;;34.93;25.60;;;1.70;99.90;;;;;;5113674;27;20483;-75
2021/01/07 00:33:44;;;;;;;34.20;25.80;;;1.70;99.90;;;;;;5098807;28;20495;-77
2021/01/07 00:36:10;;;;;;;28.13;23.27;;;1.80;99.90;;;;;;5094994;28;20971;-78
2021/01/07 00:38:37;;;;;;;32.70;25.53;;;1.80;99.90;;;;;;5102984;28;20457;-76
2021/01/07 00:41:04;;;;;;;36.83;25.03;;;1.70;99.90;;;;;;5101799;28;20518;-77
2021/01/07 00:43:30;;;;;;;31.90;25.80;;;1.70;99.90;;;;;;5098936;28;20485;-75
2021/01/07 00:45:57;;;;;;;35.00;25.70;;;1.70;99.90;;;;;;5108581;27;20879;-75
2021/01/07 00:48:24;;;;;;;36.87;26.97;;;1.70;99.90;;;;;;5103551;28;20464;-76
2021/01/07 00:50:50;;;;;;;32.23;23.67;;;1.70;99.90;;;;;;5108209;27;20534;-77
2021/01/07 00:53:16;;;;;;;32.00;25.10;;;1.60;99.90;;;;;;5103710;27;20472;-76
2021/01/07 00:55:44;;;;;;;36.17;26.03;;;1.60;99.90;;;;;;5110042;27;20470;-76
2021/01/07 00:58:10;;;;;;;36.10;24.87;;;1.60;99.90;;;;;;5107307;27;20464;-77
2021/01/07 01:00:37;;;;;;;30.10;23.80;;;1.60;99.90;;;;;;5106820;27;20463;-77
2021/01/07 01:03:04;;;;;;;33.37;23.27;;;1.60;99.90;;;;;;5099873;27;20534;-76
2021/01/07 01:05:33;;;;;;;32.37;23.70;;;1.70;99.90;;;;;;5099214;28;20465;-75
2021/01/07 01:08:00;;;;;;;32.40;26.37;;;1.70;99.90;;;;;;5108048;27;20959;-75
2021/01/07 01:10:26;;;;;;;41.33;25.37;;;1.70;99.90;;;;;;5114123;27;20767;-75
2021/01/07 01:12:53;;;;;;;31.87;24.50;;;1.70;99.90;;;;;;5101308;27;20530;-77
2021/01/07 01:15:20;;;;;;;36.80;26.90;;;1.70;99.90;;;;;;5103069;28;20511;-77
2021/01/07 01:17:46;;;;;;;36.77;27.67;;;1.70;99.90;;;;;;5102037;28;20488;-77
2021/01/07 01:20:14;;;;;;;39.10;26.27;;;1.70;99.90;;;;;;5107568;27;20464;-76
2021/01/07 01:22:41;;;;;;;38.00;27.87;;;1.70;99.90;;;;;;5110134;27;20453;-76
2021/01/07 01:25:09;;;;;;;39.60;28.63;;;1.70;99.90;;;;;;5095717;28;20543;-75
2021/01/07 01:27:36;;;;;;;37.00;27.07;;;1.70;99.90;;;;;;5104159;28;20466;-76
2021/01/07 01:30:06;;;;;;;40.47;27.63;;;1.70;99.90;;;;;;5103978;28;20488;-75
2021/01/07 01:32:34;;;;;;;33.10;27.23;;;1.70;99.90;;;;;;5103418;28;20481;-77
2021/01/07 01:35:00;;;;;;;32.53;25.80;;;1.70;99.90;;;;;;5099660;28;20456;-76
2021/01/07 01:37:27;;;;;;;36.90;27.07;;;1.60;99.90;;;;;;5103027;28;20453;-77
2021/01/07 01:39:53;;;;;;;37.20;26.20;;;1.50;99.90;;;;;;5098017;28;20602;-74
2021/01/07 01:42:24;;;;;;;33.83;26.53;;;1.60;99.90;;;;;;5117729;28;20506;-77
2021/01/07 01:44:52;;;;;;;33.40;26.73;;;1.60;99.90;;;;;;5104638;28;20475;-76
2021/01/07 01:47:20;;;;;;;37.50;26.87;;;1.60;99.90;;;;;;5098519;28;20464;-76
2021/01/07 01:49:48;;;;;;;31.10;25.33;;;1.70;99.90;;;;;;5104005;28;20550;-75
2021/01/07 01:52:15;;;;;;;35.67;29.53;;;1.80;99.90;;;;;;5110535;28;20858;-76
2021/01/07 01:54:43;;;;;;;32.93;26.30;;;1.70;99.90;;;;;;5106851;28;20469;-75
2021/01/07 01:57:12;;;;;;;36.90;27.43;;;1.60;99.90;;;;;;5100086;28;20943;-76
2021/01/07 01:59:39;;;;;;;31.07;23.00;;;1.60;99.90;;;;;;5101557;28;20841;-74
2021/01/07 02:02:07;;;;;;;36.40;27.50;;;1.60;99.90;;;;;;5102914;28;20923;-74
2021/01/07 02:04:34;;;;;;;34.93;25.17;;;1.60;99.90;;;;;;5095452;28;20453;-75
2021/01/07 02:07:04;;;;;;;33.70;26.97;;;1.60;99.90;;;;;;5100400;28;20462;-76
2021/01/07 02:09:31;;;;;;;40.80;26.27;;;1.60;99.90;;;;;;5104253;28;20490;-75
2021/01/07 02:11:59;;;;;;;35.20;27.70;;;1.60;99.90;;;;;;5106933;28;20456;-76
2021/01/07 02:14:26;;;;;;;42.23;27.80;;;1.70;99.90;;;;;;5096364;28;20472;-75
2021/01/07 02:16:55;;;;;;;41.57;27.90;;;1.70;99.90;;;;;;5095885;28;21023;-77
2021/01/07 02:19:22;;;;;;;37.40;27.73;;;1.80;99.90;;;;;;5108080;28;20460;-78
2021/01/07 02:21:49;;;;;;;35.30;27.20;;;1.80;99.90;;;;;;5107258;28;20461;-78
2021/01/07 02:24:16;;;;;;;41.73;29.10;;;1.70;99.90;;;;;;5103583;28;20970;-77
2021/01/07 02:26:44;;;;;;;41.27;29.83;;;1.70;99.90;;;;;;5099753;28;20507;-77
2021/01/07 02:29:11;;;;;;;34.67;26.97;;;1.70;99.90;;;;;;5102736;28;20495;-76
2021/01/07 02:31:37;;;;;;;41.20;31.17;;;1.80;99.90;;;;;;5096246;28;20887;-77
2021/01/07 02:34:04;;;;;;;39.70;27.47;;;1.80;99.90;;;;;;5104735;28;20858;-76
2021/01/07 02:36:30;;;;;;;38.27;28.00;;;1.80;99.90;;;;;;5105897;28;20545;-75
2021/01/07 02:38:58;;;;;;;39.80;26.60;;;1.80;99.90;;;;;;5101989;27;20802;-76
2021/01/07 02:41:24;;;;;;;45.17;27.57;;;1.70;99.90;;;;;;5105557;27;20466;-77
2021/01/07 02:43:51;;;;;;;46.63;29.73;;;1.70;99.90;;;;;;5106741;27;20485;-76
2021/01/07 02:46:17;;;;;;;39.20;28.80;;;1.70;99.90;;;;;;5113445;27;20462;-77
2021/01/07 02:48:43;;;;;;;38.20;27.97;;;1.80;99.90;;;;;;5106734;28;20457;-76
2021/01/07 02:51:11;;;;;;;38.43;27.20;;;1.90;99.90;;;;;;5103073;28;20493;-75
2021/01/07 02:53:37;;;;;;;48.17;29.70;;;1.80;99.90;;;;;;5102951;28;20460;-76
2021/01/07 02:56:05;;;;;;;41.83;28.43;;;1.80;99.90;;;;;;5106121;28;20992;-75
2021/01/07 02:58:32;;;;;;;35.93;27.57;;;1.80;99.90;;;;;;5106382;28;20444;-74
2021/01/07 03:00:58;;;;;;;40.57;27.60;;;1.80;99.90;;;;;;5107169;28;20468;-77
2021/01/07 03:03:25;;;;;;;34.63;27.40;;;1.70;99.90;;;;;;5107159;28;20507;-75
2021/01/07 03:05:52;;;;;;;40.93;28.30;;;1.80;99.90;;;;;;5105612;27;20978;-75
2021/01/07 03:08:18;;;;;;;38.53;29.40;;;1.90;99.90;;;;;;5106310;27;20455;-74
2021/01/07 03:10:44;;;;;;;39.10;28.40;;;1.80;99.90;;;;;;5115504;27;20568;-76
2021/01/07 03:13:12;;;;;;;41.57;30.17;;;1.80;99.90;;;;;;5110678;27;20491;-75
2021/01/07 03:15:41;;;;;;;43.47;31.50;;;1.90;99.90;;;;;;5103996;27;20472;-77
2021/01/07 03:18:08;;;;;;;42.60;29.37;;;2.00;99.90;;;;;;5103393;27;20943;-75
2021/01/07 03:20:35;;;;;;;42.30;30.30;;;1.90;99.90;;;;;;5107731;27;20453;-74
2021/01/07 03:23:02;;;;;;;40.70;30.50;;;2.00;99.90;;;;;;5097324;27;20459;-76
2021/01/07 03:25:28;;;;;;;49.30;31.10;;;1.90;99.90;;;;;;5098796;28;20846;-74
2021/01/07 03:27:55;;;;;;;42.33;30.90;;;2.00;99.90;;;;;;5115748;27;20469;-78
2021/01/07 03:30:23;;;;;;;34.20;27.80;;;2.10;99.90;;;;;;5113595;27;20484;-76
2021/01/07 03:32:49;;;;;;;35.10;27.83;;;2.10;99.90;;;;;;5099151;27;20484;-75
2021/01/07 03:35:16;;;;;;;42.70;29.80;;;2.10;99.90;;;;;;5113933;27;20531;-77
2021/01/07 03:37:42;;;;;;;41.70;27.50;;;2.10;99.90;;;;;;5103558;28;21122;-75
2021/01/07 03:40:11;;;;;;;47.47;28.53;;;2.00;99.90;;;;;;5104825;28;20460;-77
2021/01/07 03:42:37;;;;;;;42.13;29.43;;;2.10;99.90;;;;;;5101545;28;20567;-77
2021/01/07 03:45:05;;;;;;;42.47;29.57;;;2.00;99.90;;;;;;5101021;28;20473;-77
2021/01/07 03:47:32;;;;;;;41.93;28.63;;;2.00;99.90;;;;;;5102125;27;20538;-77
2021/01/07 03:49:59;;;;;;;39.87;28.60;;;2.00;99.90;;;;;;5109893;27;20483;-75
2021/01/07 03:52:26;;;;;;;43.80;30.20;;;2.00;99.90;;;;;;5105302;27;20461;-74
2021/01/07 03:54:52;;;;;;;51.80;29.47;;;2.10;99.90;;;;;;5101997;27;21006;-75
2021/01/07 03:57:20;;;;;;;41.20;28.87;;;2.10;99.90;;;;;;5110075;27;20470;-75
2021/01/07 03:59:47;;;;;;;41.57;28.93;;;2.10;99.90;;;;;;5098392;27;20465;-75
2021/01/07 04:02:13;;;;;;;41.97;30.10;;;2.20;99.90;;;;;;5101584;28;20544;-76
2021/01/07 04:04:40;;;;;;;43.90;30.10;;;2.20;99.90;;;;;;5108499;27;20483;-75
2021/01/07 04:07:06;;;;;;;43.57;29.87;;;2.20;99.90;;;;;;5100366;28;20681;-77
2021/01/07 04:09:32;;;;;;;51.20;31.27;;;2.20;99.90;;;;;;5097975;28;20841;-75
2021/01/07 04:11:59;;;;;;;50.93;32.80;;;2.20;99.90;;;;;;5104969;28;20892;-78
2021/01/07 04:14:25;;;;;;;48.27;33.40;;;2.20;99.90;;;;;;5101869;28;20514;-76
2021/01/07 04:16:51;;;;;;;53.17;33.10;;;2.30;99.90;;;;;;5116238;27;20457;-77
2021/01/07 04:19:18;;;;;;;51.63;32.30;;;2.20;99.90;;;;;;5103619;27;20962;-75
2021/01/07 04:21:46;;;;;;;53.90;32.70;;;2.20;99.90;;;;;;5104774;27;20483;-77
2021/01/07 04:24:14;;;;;;;49.87;34.80;;;2.20;99.90;;;;;;5111319;27;20455;-76
2021/01/07 04:26:42;;;;;;;49.90;32.57;;;2.20;99.90;;;;;;5107425;27;20895;-75
2021/01/07 04:29:09;;;;;;;50.00;32.80;;;2.20;99.90;;;;;;5103143;27;20487;-77
2021/01/07 04:31:36;;;;;;;52.70;31.80;;;2.20;99.90;;;;;;5099056;28;20473;-77
2021/01/07 04:34:03;;;;;;;51.57;32.80;;;2.30;99.90;;;;;;5100655;28;20460;-75
2021/01/07 04:36:29;;;;;;;51.23;31.03;;;2.30;99.90;;;;;;5094029;28;20471;-75
2021/01/07 04:38:57;;;;;;;53.63;32.30;;;2.30;99.90;;;;;;5107036;27;20457;-76
2021/01/07 04:41:24;;;;;;;50.23;31.87;;;2.30;99.90;;;;;;5111031;27;20510;-76
2021/01/07 04:43:55;;;;;;;54.70;33.23;;;2.30;99.90;;;;;;5103403;27;20494;-76
2021/01/07 04:46:21;;;;;;;55.57;34.60;;;2.20;99.90;;;;;;5109181;27;20867;-75
2021/01/07 04:48:48;;;;;;;55.90;32.40;;;2.30;99.90;;;;;;5107628;27;20976;-74
2021/01/07 04:51:15;;;;;;;52.30;32.60;;;2.30;99.90;;;;;;5099060;27;20568;-76
2021/01/07 04:53:41;;;;;;;50.30;30.47;;;2.30;99.90;;;;;;5102650;28;20457;-77
2021/01/07 04:56:09;;;;;;;53.07;32.87;;;2.30;99.90;;;;;;5105179;27;20460;-78
2021/01/07 04:58:35;;;;;;;53.00;33.93;;;2.30;99.90;;;;;;5096792;27;20456;-78
2021/01/07 05:01:02;;;;;;;62.03;35.97;;;2.30;99.90;;;;;;5101818;28;20891;-75
2021/01/07 05:03:31;;;;;;;56.13;35.13;;;2.40;99.90;;;;;;5095726;27;20453;-76
2021/01/07 05:05:58;;;;;;;53.70;31.80;;;2.30;99.90;;;;;;5096198;28;20466;-77
2021/01/07 05:08:24;;;;;;;59.20;35.33;;;2.30;99.90;;;;;;5102367;28;20474;-76
2021/01/07 05:10:52;;;;;;;64.57;33.57;;;2.30;99.90;;;;;;5099415;28;20497;-75
2021/01/07 05:13:20;;;;;;;57.30;36.00;;;2.30;99.90;;;;;;5095139;28;20464;-74
2021/01/07 05:15:47;;;;;;;57.50;35.90;;;2.20;99.90;;;;;;5099578;28;20450;-77
2021/01/07 05:18:14;;;;;;;48.97;32.60;;;2.30;99.90;;;;;;5103205;28;20811;-75
2021/01/07 05:20:41;;;;;;;57.10;34.50;;;2.30;99.90;;;;;;5107471;27;20529;-77
2021/01/07 05:23:08;;;;;;;53.50;32.87;;;2.30;99.90;;;;;;5105046;27;20464;-75
2021/01/07 05:25:38;;;;;;;51.17;32.50;;;2.30;99.90;;;;;;5102828;27;20828;-76
2021/01/07 05:28:06;;;;;;;57.30;32.63;;;2.20;99.90;;;;;;5106045;28;20483;-75
2021/01/07 05:30:35;;;;;;;46.93;28.73;;;2.10;99.90;;;;;;5101882;28;20476;-76
2021/01/07 05:33:04;;;;;;;49.97;31.17;;;2.10;99.90;;;;;;5097446;28;20967;-76
2021/01/07 05:35:31;;;;;;;53.63;31.10;;;2.00;99.90;;;;;;5102630;28;20492;-76
2021/01/07 05:37:58;;;;;;;62.03;33.53;;;2.10;99.90;;;;;;5097923;28;20469;-76
2021/01/07 05:40:26;;;;;;;63.10;36.17;;;2.10;99.90;;;;;;5104232;28;20455;-78
2021/01/07 05:42:56;;;;;;;50.73;32.17;;;2.10;99.90;;;;;;5096948;28;20493;-78
2021/01/07 05:45:22;;;;;;;45.53;31.13;;;2.20;99.90;;;;;;5101337;27;20472;-77
2021/01/07 05:47:52;;;;;;;49.83;34.33;;;2.20;99.90;;;;;;5097323;28;20495;-78
2021/01/07 05:50:20;;;;;;;60.60;34.17;;;2.20;99.90;;;;;;5109602;28;20492;-79
2021/01/07 05:52:48;;;;;;;53.57;31.40;;;2.20;99.90;;;;;;5096760;28;20862;-76
2021/01/07 05:55:17;;;;;;;58.53;34.80;;;2.20;99.90;;;;;;5107168;28;20463;-77
2021/01/07 05:57:44;;;;;;;49.20;32.70;;;2.20;99.90;;;;;;5094122;28;20515;-76
2021/01/07 06:00:12;;;;;;;46.73;33.57;;;2.20;99.90;;;;;;5099934;28;21229;-78
2021/01/07 06:02:40;;;;;;;36.17;26.27;;;2.20;99.90;;;;;;5092201;28;20512;-78
2021/01/07 06:05:10;;;;;;;59.70;35.80;;;2.30;99.90;;;;;;5103294;28;20461;-78
2021/01/07 06:07:38;;;;;;;52.37;33.90;;;2.20;99.90;;;;;;5107389;28;20690;-75
2021/01/07 06:10:06;;;;;;;53.70;33.23;;;2.20;99.90;;;;;;5099765;28;20912;-75
2021/01/07 06:12:33;;;;;;;45.10;34.40;;;2.20;99.90;;;;;;5112566;27;21001;-77
2021/01/07 06:15:01;;;;;;;55.83;35.23;;;2.20;99.90;;;;;;5104696;27;20465;-76
2021/01/07 06:17:30;;;;;;;51.70;34.10;;;2.10;99.90;;;;;;5103800;27;20452;-76
2021/01/07 06:19:56;;;;;;;44.70;34.47;;;2.10;99.90;;;;;;5098195;28;20464;-78
2021/01/07 06:22:24;;;;;;;52.13;34.27;;;2.10;99.90;;;;;;5098371;28;20469;-78
2021/01/07 06:24:56;;;;;;;46.10;34.17;;;2.10;99.90;;;;;;5098906;28;20457;-76
2021/01/07 06:27:27;;;;;;;49.33;34.27;;;2.10;99.90;;;;;;5104333;27;20461;-78
2021/01/07 06:30:00;;;;;;;46.47;34.27;;;2.10;99.90;;;;;;5107786;27;21022;-78
2021/01/07 06:32:29;;;;;;;46.90;34.70;;;2.00;99.90;;;;;;5110299;27;20455;-79
2021/01/07 06:34:57;;;;;;;52.00;36.30;;;2.00;99.90;;;;;;5103012;28;20876;-80
2021/01/07 06:37:31;;;;;;;47.07;34.40;;;2.00;99.90;;;;;;5096403;28;20466;-81
2021/01/07 06:39:58;;;;;;;47.97;36.13;;;1.90;99.90;;;;;;5096004;28;20458;-78
2021/01/07 06:42:25;;;;;;;49.63;34.77;;;1.90;99.90;;;;;;5105692;27;20878;-77
2021/01/07 06:44:52;;;;;;;44.40;34.00;;;1.90;99.90;;;;;;5099939;27;20453;-78
2021/01/07 06:47:20;;;;;;;46.67;33.80;;;1.90;99.90;;;;;;5110363;27;20828;-78
2021/01/07 06:49:49;;;;;;;46.60;34.40;;;1.80;99.90;;;;;;5105195;27;20476;-80
2021/01/07 06:52:16;;;;;;;60.20;37.57;;;1.80;99.90;;;;;;5100646;28;20541;-81
2021/01/07 06:54:46;;;;;;;47.90;35.10;;;1.70;99.90;;;;;;5101274;28;20465;-78
2021/01/07 06:57:14;;;;;;;50.93;36.20;;;1.70;99.90;;;;;;5104096;28;20825;-77
2021/01/07 06:59:56;;;;;;;52.03;36.07;;;1.70;99.90;;;;;;5096293;28;20962;-77
2021/01/07 07:02:23;;;;;;;47.17;34.03;;;1.70;99.90;;;;;;5093528;28;20469;-80
2021/01/07 07:04:58;;;;;;;48.10;36.80;;;1.70;99.90;;;;;;5104635;27;20460;-78
2021/01/07 07:07:59;;;;;;;51.43;38.13;;;1.80;99.90;;;;;;5102904;27;20484;-77
2021/01/07 07:11:02;;;;;;;48.83;37.53;;;1.70;99.90;;;;;;5109196;27;20476;-77
2021/01/07 07:13:32;;;;;;;53.63;39.40;;;1.60;99.90;;;;;;5099186;27;20803;-75
2021/01/07 07:16:03;;;;;;;65.03;41.13;;;1.50;99.90;;;;;;5104268;27;20464;-76
2021/01/07 07:18:34;;;;;;;60.20;43.90;;;1.50;99.90;;;;;;5103371;27;20468;-75
2021/01/07 07:21:14;;;;;;;84.87;49.87;;;1.40;99.90;;;;;;5102283;27;20461;-77
2021/01/07 07:23:43;;;;;;;74.83;50.70;;;1.30;99.90;;;;;;5093645;27;20515;-75
2021/01/07 07:26:12;;;;;;;78.13;49.23;;;1.30;99.90;;;;;;5094896;27;20466;-76
2021/01/07 07:28:45;;;;;;;80.90;43.90;;;1.30;99.90;;;;;;5106948;27;20547;-76
2021/01/07 07:31:12;;;;;;;60.10;41.97;;;1.30;99.90;;;;;;5117612;27;20856;-75
2021/01/07 07:33:40;;;;;;;61.43;40.90;;;1.30;99.90;;;;;;5103545;27;20947;-77
2021/01/07 07:36:10;;;;;;;63.20;42.57;;;1.30;99.90;;;;;;5104462;27;20495;-76
2021/01/07 07:38:39;;;;;;;60.60;44.50;;;1.20;99.90;;;;;;5105418;27;20472;-77
2021/01/07 07:41:07;;;;;;;64.63;44.37;;;1.20;99.90;;;;;;5096438;27;20914;-76
2021/01/07 07:43:35;;;;;;;59.20;42.30;;;1.20;99.90;;;;;;5103982;27;20476;-76
2021/01/07 07:46:04;;;;;;;77.17;42.57;;;1.20;99.90;;;;;;5103473;27;20454;-75
2021/01/07 07:48:31;;;;;;;70.67;43.03;;;1.20;99.90;;;;;;5093025;27;20468;-76
2021/01/07 07:51:08;;;;;;;64.00;44.43;;;1.20;99.90;;;;;;5098368;27;20492;-76
2021/01/07 07:53:35;;;;;;;75.83;47.40;;;1.10;99.90;;;;;;5104277;27;20826;-75
2021/01/07 07:56:02;;;;;;;67.90;45.00;;;1.20;99.90;;;;;;5102385;27;21070;-76
2021/01/07 07:58:29;;;;;;;65.60;43.17;;;1.20;99.90;;;;;;5104089;27;20582;-73
2021/01/07 08:00:56;;;;;;;62.73;44.83;;;1.20;99.90;;;;;;5103511;27;20472;-73
2021/01/07 08:03:25;;;;;;;58.00;40.70;;;1.20;99.90;;;;;;5101569;27;20464;-73
2021/01/07 08:05:52;;;;;;;52.93;37.70;;;1.20;99.90;;;;;;5103529;27;20452;-74
2021/01/07 08:08:24;;;;;;;56.27;39.93;;;1.20;99.90;;;;;;5101160;27;20576;-73
2021/01/07 08:10:50;;;;;;;54.50;38.83;;;1.20;99.90;;;;;;5110294;27;20474;-74
2021/01/07 08:13:20;;;;;;;55.23;41.47;;;1.20;99.90;;;;;;5109212;27;20462;-74
2021/01/07 08:15:49;;;;;;;58.20;41.37;;;1.20;99.90;;;;;;5095710;27;20462;-75
2021/01/07 08:18:17;;;;;;;55.60;42.13;;;1.20;99.90;;;;;;5100539;27;20487;-75
2021/01/07 08:20:45;;;;;;;70.40;43.03;;;1.20;99.90;;;;;;5107099;27;20849;-76
2021/01/07 08:23:13;;;;;;;61.87;45.33;;;1.30;99.90;;;;;;5105685;27;20489;-74
2021/01/07 08:25:40;;;;;;;55.27;40.80;;;1.30;99.90;;;;;;5103758;27;20470;-74
2021/01/07 08:28:15;;;;;;;55.30;39.47;;;1.40;99.90;;;;;;5110693;27;20511;-75
2021/01/07 08:30:48;;;;;;;56.30;40.57;;;1.40;99.90;;;;;;5109132;27;20485;-75
2021/01/07 08:33:18;;;;;;;51.03;38.40;;;1.50;99.90;;;;;;5097838;28;20970;-75
2021/01/07 08:35:45;;;;;;;53.90;39.90;;;1.60;99.90;;;;;;5104867;27;20796;-75
2021/01/07 08:38:24;;;;;;;49.67;39.83;;;1.60;99.90;;;;;;5102060;27;20784;-75
2021/01/07 08:40:50;;;;;;;47.50;39.43;;;1.70;99.90;;;;;;5103846;27;20833;-75
2021/01/07 08:43:16;;;;;;;56.07;39.60;;;1.80;99.90;;;;;;5101298;27;20472;-74
2021/01/07 08:45:42;;;;;;;51.17;37.67;;;1.80;99.90;;;;;;5098241;27;20465;-75
2021/01/07 08:48:09;;;;;;;55.83;39.43;;;1.80;99.90;;;;;;5100775;27;20459;-74
2021/01/07 08:50:35;;;;;;;52.47;39.27;;;1.80;99.90;;;;;;5092050;27;20710;-76
2021/01/07 08:53:13;;;;;;;46.00;37.53;;;1.80;99.90;;;;;;5098538;27;20460;-76
2021/01/07 08:55:47;;;;;;;53.27;36.67;;;1.70;99.90;;;;;;5103610;27;20460;-77
2021/01/07 08:58:23;;;;;;;40.60;36.17;;;1.70;99.90;;;;;;5108438;27;20459;-78
2021/01/07 09:00:51;;;;;;;52.50;38.77;;;1.70;99.90;;;;;;5099298;27;20828;-77
2021/01/07 09:03:17;;;;;;;41.40;36.87;;;1.90;99.90;;;;;;5098397;27;20465;-78
2021/01/07 09:05:44;;;;;;;53.33;39.00;;;1.90;99.90;;;;;;5099041;27;20535;-76
2021/01/07 09:08:13;;;;;;;51.87;38.87;;;2.00;99.90;;;;;;5091767;27;20491;-76
2021/01/07 09:10:40;;;;;;;47.20;37.80;;;1.90;99.90;;;;;;5090296;28;20527;-77
2021/01/07 09:13:17;;;;;;;46.10;36.83;;;2.00;99.90;;;;;;5095849;27;20545;-76
2021/01/07 09:15:43;;;;;;;44.40;35.33;;;2.00;99.90;;;;;;5094442;28;20585;-77
2021/01/07 09:18:10;;;;;;;46.07;37.67;;;2.00;99.90;;;;;;5099896;27;20465;-76
2021/01/07 09:20:38;;;;;;;45.43;38.53;;;2.10;99.90;;;;;;5098516;27;20861;-77
2021/01/07 09:23:06;;;;;;;46.47;37.50;;;2.10;99.90;;;;;;5095906;27;20463;-76
2021/01/07 09:25:33;;;;;;;47.97;38.60;;;2.10;99.90;;;;;;5096024;27;20528;-77
2021/01/07 09:28:00;;;;;;;48.87;37.60;;;2.20;99.90;;;;;;5104832;27;20452;-76
2021/01/07 09:30:27;;;;;;;47.20;37.33;;;2.20;99.90;;;;;;5095636;28;20856;-76
2021/01/07 09:32:56;;;;;;;42.67;34.77;;;2.10;99.90;;;;;;5094010;28;20495;-76
2021/01/07 09:35:23;;;;;;;41.60;35.07;;;2.20;99.90;;;;;;5094836;28;20461;-76
2021/01/07 09:37:50;;;;;;;43.03;35.30;;;2.30;99.90;;;;;;5103409;28;20456;-76
2021/01/07 09:40:16;;;;;;;38.27;33.77;;;2.30;99.90;;;;;;5096813;28;20453;-76
2021/01/07 09:42:43;;;;;;;43.83;35.40;;;2.30;99.90;;;;;;5104553;28;20887;-76
2021/01/07 09:45:11;;;;;;;44.90;34.83;;;2.40;99.90;;;;;;5098323;28;20467;-76
2021/01/07 09:47:37;;;;;;;39.83;33.93;;;2.40;99.90;;;;;;5105376;27;20449;-76
2021/01/07 09:50:05;;;;;;;42.97;36.77;;;2.40;99.90;;;;;;5097989;27;20473;-77
2021/01/07 09:52:32;;;;;;;41.90;33.90;;;2.50;99.90;;;;;;5100133;27;20460;-77
2021/01/07 09:54:59;;;;;;;37.43;33.73;;;2.50;99.90;;;;;;5100702;27;20552;-77
2021/01/07 09:57:25;;;;;;;41.47;34.07;;;2.50;99.90;;;;;;5111001;27;20802;-77
2021/01/07 09:59:53;;;;;;;46.50;35.10;;;2.50;99.90;;;;;;5107413;27;20976;-77
2021/01/07 10:02:20;;;;;;;39.27;34.70;;;2.30;99.90;;;;;;5112521;27;20466;-76
2021/01/07 10:04:47;;;;;;;37.93;32.60;;;2.40;99.90;;;;;;5100707;27;20477;-78
2021/01/07 10:07:14;;;;;;;47.67;37.10;;;2.30;99.90;;;;;;5103803;27;20989;-77
2021/01/07 10:09:41;;;;;;;44.00;36.83;;;2.40;99.90;;;;;;5111951;27;20971;-77
2021/01/07 10:12:09;;;;;;;52.03;37.17;;;2.40;99.90;;;;;;5095719;27;20990;-77
2021/01/07 10:14:36;;;;;;;44.57;35.17;;;2.40;99.90;;;;;;5101869;27;20460;-77
2021/01/07 10:17:05;;;;;;;45.80;35.30;;;2.50;99.90;;;;;;5100771;28;20464;-77
2021/01/07 10:19:33;;;;;;;40.40;34.47;;;2.50;99.90;;;;;;5106231;27;21122;-76
2021/01/07 10:22:02;;;;;;;42.10;37.07;;;2.40;99.90;;;;;;5100284;27;20823;-77
2021/01/07 10:24:30;;;;;;;42.13;37.50;;;2.50;99.90;;;;;;5107111;27;20468;-77
2021/01/07 10:26:58;;;;;;;40.40;34.40;;;2.40;99.90;;;;;;5106519;27;20526;-77
2021/01/07 10:29:26;;;;;;;44.70;37.00;;;2.40;99.90;;;;;;5105318;27;20499;-77
2021/01/07 10:31:54;;;;;;;46.93;36.47;;;2.40;99.90;;;;;;5106495;27;20486;-77
2021/01/07 10:34:22;;;;;;;49.80;36.97;;;2.50;99.90;;;;;;5106117;27;20525;-77
2021/01/07 10:36:51;;;;;;;46.93;36.30;;;2.50;99.90;;;;;;5107203;27;20457;-77
2021/01/07 10:39:22;;;;;;;36.60;29.63;;;2.60;99.90;;;;;;5113699;27;20459;-77
2021/01/07 10:41:51;;;;;;;48.77;38.00;;;2.50;99.90;;;;;;5103365;27;20465;-77
2021/01/07 10:44:19;;;;;;;49.83;36.23;;;2.60;99.90;;;;;;5106562;27;20817;-77
2021/01/07 10:46:46;;;;;;;47.77;36.40;;;2.60;99.90;;;;;;5097253;27;20805;-77
2021/01/07 10:49:15;;;;;;;53.90;37.80;;;2.60;99.90;;;;;;5105978;27;20999;-76
2021/01/07 10:51:57;;;;;;;44.40;36.63;;;2.70;99.90;;;;;;5106703;27;21011;-77
2021/01/07 10:54:40;;;;;;;48.83;38.47;;;2.70;99.90;;;;;;5102331;27;20454;-77
2021/01/07 10:57:42;;;;;;;56.17;36.57;;;2.70;99.90;;;;;;5105097;27;20515;-76
2021/01/07 11:00:13;;;;;;;43.40;36.40;;;2.80;99.90;;;;;;5103335;27;20824;-76
2021/01/07 11:03:13;;;;;;;49.37;37.47;;;2.80;99.90;;;;;;5103609;27;20540;-76
2021/01/07 11:05:43;;;;;;;49.17;38.83;;;2.80;99.90;;;;;;5099939;27;20866;-77
2021/01/07 11:08:18;;;;;;;53.20;35.53;;;2.90;99.90;;;;;;5103641;27;21024;-76
2021/01/07 11:10:50;;;;;;;42.27;35.50;;;2.90;99.90;;;;;;5099687;28;20915;-77
2021/01/07 11:13:20;;;;;;;47.33;36.17;;;2.80;99.90;;;;;;5103988;27;20871;-77
2021/01/07 11:15:53;;;;;;;49.17;35.50;;;2.90;99.90;;;;;;5102135;27;20459;-76
2021/01/07 11:18:25;;;;;;;44.57;33.70;;;2.90;99.90;;;;;;5100250;28;20464;-76
2021/01/07 11:20:58;;;;;;;41.73;36.87;;;2.90;99.90;;;;;;5098295;27;20531;-76
2021/01/07 11:23:26;;;;;;;42.43;34.73;;;3.00;99.90;;;;;;5099031;27;20960;-76
2021/01/07 11:25:54;;;;;;;44.10;37.07;;;3.00;99.90;;;;;;5095551;27;20473;-77
2021/01/07 11:28:21;;;;;;;42.90;36.07;;;3.00;99.90;;;;;;5110708;27;20980;-76
2021/01/07 11:30:49;;;;;;;48.27;35.73;;;3.00;99.90;;;;;;5105092;27;20476;-76
2021/01/07 11:33:16;;;;;;;47.40;37.57;;;2.90;99.90;;;;;;5106017;27;20462;-76
2021/01/07 11:35:45;;;;;;;43.50;35.70;;;2.90;99.90;;;;;;5104049;27;20980;-76
2021/01/07 11:38:23;;;;;;;45.87;35.27;;;2.80;99.90;;;;;;5101054;27;20543;-76
2021/01/07 11:40:58;;;;;;;47.80;38.57;;;2.80;99.90;;;;;;5096902;28;20572;-76
2021/01/07 11:43:48;;;;;;;46.17;35.07;;;2.90;99.90;;;;;;5106740;27;20482;-77
2021/01/07 11:46:17;;;;;;;54.03;36.07;;;2.70;99.90;;;;;;5097895;27;20457;-76
2021/01/07 11:48:47;;;;;;;44.77;34.90;;;2.80;99.90;;;;;;5100043;27;20523;-76
2021/01/07 11:51:14;;;;;;;43.67;34.70;;;2.80;99.90;;;;;;5099117;27;20533;-77
2021/01/07 11:53:41;;;;;;;47.27;35.87;;;2.80;99.90;;;;;;5100796;27;20684;-76
2021/01/07 11:56:09;;;;;;;42.80;36.83;;;2.80;99.90;;;;;;5106053;27;21167;-77
2021/01/07 11:58:39;;;;;;;39.97;34.87;;;2.90;99.90;;;;;;5098168;27;20461;-76
2021/01/07 12:01:06;;;;;;;38.00;32.70;;;3.00;99.90;;;;;;5104289;27;21032;-77
2021/01/07 12:03:34;;;;;;;43.23;35.27;;;3.00;99.90;;;;;;5102381;27;20509;-76
2021/01/07 12:06:03;;;;;;;38.70;34.53;;;3.10;99.90;;;;;;5100191;27;20457;-77
2021/01/07 12:08:38;;;;;;;41.17;36.43;;;3.00;99.90;;;;;;5105150;27;21006;-76
2021/01/07 12:11:06;;;;;;;38.70;34.00;;;3.10;99.90;;;;;;5106027;27;20488;-76
2021/01/07 12:13:41;;;;;;;39.27;34.27;;;3.00;99.90;;;;;;5103266;27;20452;-77
2021/01/07 12:16:14;;;;;;;42.07;35.57;;;3.10;99.90;;;;;;5098086;27;20514;-76
2021/01/07 12:18:40;;;;;;;37.40;33.60;;;3.00;99.90;;;;;;5099195;27;20484;-77
2021/01/07 12:21:07;;;;;;;36.40;32.60;;;2.90;99.90;;;;;;5095739;27;20481;-77
2021/01/07 12:23:36;;;;;;;37.80;33.97;;;2.90;99.90;;;;;;5108931;27;20461;-76
2021/01/07 12:26:04;;;;;;;42.83;36.37;;;2.90;99.90;;;;;;5093260;27;20490;-77
2021/01/07 12:28:32;;;;;;;38.43;33.90;;;2.90;99.90;;;;;;5090556;28;20513;-77
2021/01/07 12:31:02;;;;;;;36.90;33.03;;;2.90;99.90;;;;;;5112470;27;21018;-77
2021/01/07 12:33:38;;;;;;;37.23;33.20;;;2.90;99.90;;;;;;5098665;27;20472;-77
2021/01/07 12:36:06;;;;;;;32.37;29.13;;;2.90;99.90;;;;;;5099382;27;20454;-77
2021/01/07 12:38:49;;;;;;;36.37;31.80;;;2.90;99.90;;;;;;5104826;27;20462;-77
2021/01/07 12:41:21;;;;;;;35.20;31.63;;;3.00;99.90;;;;;;5096656;27;20458;-77
2021/01/07 12:43:52;;;;;;;36.17;32.30;;;3.00;99.90;;;;;;5113863;27;21060;-77